createdAt,value
2022-10-18T00:01:04.083Z,10.60
2022-10-18T00:03:32.541Z,10.40
2022-10-18T00:06:00.355Z,10.93
2022-10-18T00:08:31.369Z,9.57
2022-10-18T00:10:58.958Z,9.70
2022-10-18T00:13:26.158Z,10.68
2022-10-18T00:15:54.863Z,10.10
2022-10-18T00:18:22.606Z,9.18
2022-10-18T00:21:00.516Z,9.23
2022-10-18T00:23:31.677Z,9.38
2022-10-18T00:25:59.833Z,9.07
2022-10-18T01:07:43.860Z,10.77
2022-10-18T01:10:34.654Z,9.70
2022-10-18T01:13:04.731Z,10.07
2022-10-18T01:15:44.664Z,10.67
2022-10-18T01:18:34.105Z,11.05
2022-10-18T01:21:04.225Z,9.60
2022-10-18T01:23:31.344Z,8.73
2022-10-18T09:34:24.516Z,8.18
2022-10-18T09:36:52.441Z,7.57
2022-10-18T09:39:26.671Z,7.35
2022-10-18T09:42:00.714Z,7.90
2022-10-18T09:44:34.672Z,6.93
2022-10-18T09:47:16.584Z,8.07
2022-10-18T09:49:48.103Z,8.27
2022-10-18T09:52:19.794Z,7.22
2022-10-18T09:54:53.440Z,6.00
2022-10-18T09:57:35.838Z,6.30
2022-10-18T10:00:04.566Z,6.13
2022-10-18T10:02:31.875Z,6.50
2022-10-18T10:07:43.136Z,3.40
2022-10-18T10:10:17.113Z,3.73
2022-10-18T10:12:44.513Z,2.72
2022-10-18T10:15:22.749Z,3.60
2022-10-18T10:18:03.432Z,3.72
2022-10-18T10:20:30.514Z,2.70
2022-10-18T10:23:09.225Z,3.70
2022-10-18T10:25:38.552Z,3.22
2022-10-18T10:28:07.603Z,3.55
2022-10-18T10:30:36.838Z,3.20
2022-10-18T10:33:22.870Z,3.55
2022-10-18T10:35:59.457Z,2.40
2022-10-18T10:38:28.295Z,2.65
2022-10-18T10:40:56.366Z,2.60
2022-10-18T10:43:40.351Z,2.55
2022-10-18T10:46:09.811Z,2.90
2022-10-18T10:48:43.114Z,2.37
2022-10-18T10:51:11.611Z,1.98
2022-10-18T10:53:40.770Z,1.15
2022-10-18T10:56:16.048Z,1.00
2022-10-18T10:58:43.773Z,1.13
2022-10-18T11:01:22.393Z,1.07
2022-10-18T13:33:28.812Z,0.95
2022-10-18T13:59:41.862Z,1.02
2022-10-18T14:02:30.769Z,1.00
2022-10-18T14:05:24.670Z,0.90
2022-10-18T14:08:10.216Z,0.87
2022-10-18T14:14:26.429Z,0.80
2022-10-18T14:17:00.623Z,0.70
2022-10-18T14:19:30.901Z,0.80
2022-10-18T14:22:17.487Z,0.80
2022-10-18T14:33:38.834Z,0.90
2022-10-18T14:39:34.996Z,0.80
2022-10-18T14:42:38.611Z,0.95
2022-10-18T14:45:31.741Z,0.80
2022-10-18T14:48:19.092Z,0.80
2022-10-18T14:50:48.121Z,0.83
2022-10-18T14:53:22.146Z,0.70
2022-10-18T14:55:56.889Z,0.90
2022-10-18T14:58:24.235Z,0.90
2022-10-18T15:00:51.448Z,0.80
2022-10-18T15:03:19.094Z,0.80
2022-10-18T15:05:59.381Z,0.90
2022-10-18T15:08:31.712Z,0.77
2022-10-18T15:11:02.008Z,0.88
2022-10-18T15:13:36.522Z,0.90
2022-10-18T15:16:03.706Z,0.90
2022-10-18T15:21:08.065Z,1.00
2022-10-18T15:23:35.439Z,1.10
2022-10-18T15:26:11.249Z,1.00
2022-10-18T15:28:50.308Z,1.00
2022-10-18T15:31:37.792Z,0.93
2022-10-18T15:34:17.221Z,0.93
2022-10-18T15:36:57.191Z,0.90
2022-10-18T15:39:26.100Z,1.00
2022-10-18T15:41:59.705Z,1.00
2022-10-18T15:44:37.886Z,1.00
2022-10-18T15:47:16.300Z,1.15
2022-10-18T15:49:46.718Z,2.20
2022-10-18T16:00:30.967Z,1.00
2022-10-18T16:02:58.373Z,0.90
2022-10-18T16:05:25.676Z,1.00
2022-10-18T16:07:53.659Z,0.70
2022-10-18T16:10:23.723Z,1.30
2022-10-18T16:12:51.580Z,1.50
2022-10-18T16:15:24.637Z,1.17
2022-10-18T16:17:53.288Z,1.42
2022-10-18T16:20:34.506Z,1.40
2022-10-18T16:23:03.540Z,1.20
2022-10-18T16:25:33.444Z,1.20
2022-10-18T16:28:06.687Z,1.23
2022-10-18T16:30:39.542Z,1.00
2022-10-18T16:33:08.593Z,3.40
2022-10-18T16:36:32.129Z,2.90
2022-10-18T16:39:12.714Z,3.42
2022-10-18T16:41:43.126Z,3.90
2022-10-18T16:44:12.709Z,6.60
2022-10-18T16:46:52.391Z,4.63
2022-10-18T16:49:26.736Z,5.93
2022-10-18T16:51:56.964Z,4.50
2022-10-18T16:54:24.156Z,4.55
2022-10-18T16:57:11.982Z,16.27
2022-10-18T16:59:41.469Z,10.93
2022-10-18T17:02:10.921Z,5.88
2022-10-18T17:04:38.044Z,6.75
2022-10-18T17:07:06.180Z,6.50
2022-10-18T17:09:35.147Z,5.20
2022-10-18T17:12:02.386Z,3.97
2022-10-18T17:15:02.789Z,3.60
2022-10-18T17:17:30.020Z,2.92
2022-10-18T17:19:57.408Z,10.88
2022-10-18T17:22:24.687Z,4.82
2022-10-18T17:24:52.611Z,2.23
2022-10-18T17:27:19.730Z,2.70
2022-10-18T17:29:47.000Z,3.15
2022-10-18T17:32:14.259Z,2.70
2022-10-18T17:37:09.824Z,2.57
2022-10-18T17:39:37.077Z,2.55
2022-10-18T17:42:04.430Z,2.85
2022-10-18T17:44:31.706Z,2.60
2022-10-18T17:46:58.947Z,3.33
2022-10-18T17:49:26.275Z,2.70
2022-10-18T17:51:56.484Z,2.60
2022-10-18T17:54:23.633Z,3.63
2022-10-18T17:56:53.849Z,3.28
2022-10-18T17:59:22.023Z,3.53
2022-10-18T18:01:49.626Z,3.73
2022-10-18T18:04:17.382Z,3.40
2022-10-18T18:06:45.677Z,4.50
2022-10-18T18:09:17.257Z,4.70
2022-10-18T18:11:48.098Z,4.80
2022-10-18T18:14:16.048Z,4.77
2022-10-18T18:16:44.592Z,4.10
2022-10-18T18:19:35.982Z,3.92
2022-10-18T18:22:04.804Z,4.88
2022-10-18T18:24:32.237Z,3.72
2022-10-18T18:26:59.823Z,3.13
2022-10-18T18:30:02.289Z,3.40
2022-10-18T18:32:29.481Z,3.63
2022-10-18T18:34:56.673Z,2.65
2022-10-18T18:37:26.245Z,2.97
2022-10-18T18:40:03.618Z,2.33
2022-10-18T18:42:30.840Z,2.47
2022-10-18T18:44:58.236Z,2.83
2022-10-18T18:47:27.052Z,2.60
2022-10-18T18:49:54.219Z,2.38
2022-10-18T18:52:21.415Z,2.00
2022-10-18T18:54:48.561Z,2.95
2022-10-18T19:00:44.965Z,1.95
2022-10-18T19:03:23.696Z,2.47
2022-10-18T19:05:50.837Z,2.20
2022-10-18T19:08:17.994Z,2.25
2022-10-18T19:10:52.225Z,2.58
2022-10-18T19:13:25.595Z,2.70
2022-10-18T19:15:52.764Z,2.50
2022-10-18T19:18:23.846Z,3.17
2022-10-18T19:20:51.245Z,3.30
2022-10-18T19:23:18.451Z,4.97
2022-10-18T19:26:20.136Z,4.63
2022-10-18T19:28:47.310Z,4.53
2022-10-18T19:31:14.489Z,4.23
2022-10-18T19:33:55.656Z,4.70
2022-10-18T19:36:26.484Z,4.50
2022-10-18T19:38:53.839Z,3.53
2022-10-18T19:43:55.224Z,5.03
2022-10-18T19:46:22.753Z,4.97
2022-10-18T19:48:50.246Z,5.10
2022-10-18T19:51:21.031Z,4.90
2022-10-18T19:53:51.681Z,6.15
2022-10-18T19:56:20.874Z,5.00
2022-10-18T19:58:49.322Z,4.90
2022-10-18T20:01:17.863Z,4.65
2022-10-18T20:03:45.905Z,4.20
2022-10-18T20:06:15.837Z,4.70
2022-10-18T20:08:43.487Z,4.47
2022-10-18T20:11:12.032Z,3.90
2022-10-18T20:13:39.291Z,3.75
2022-10-18T20:16:07.400Z,3.85
2022-10-18T20:18:34.993Z,3.70
2022-10-18T20:21:13.540Z,4.03
2022-10-18T20:23:41.896Z,4.65
2022-10-18T20:26:11.007Z,4.13
2022-10-18T20:28:38.598Z,5.38
2022-10-18T23:35:01.758Z,3.42
2022-10-18T23:37:55.277Z,3.85
2022-10-18T23:40:22.511Z,4.30
2022-10-18T23:42:49.582Z,4.13
2022-10-18T23:45:16.729Z,3.70
2022-10-18T23:47:43.876Z,4.43
2022-10-18T23:50:11.042Z,4.32
2022-10-18T23:52:38.199Z,4.70
2022-10-18T23:55:05.539Z,3.80
2022-10-18T23:57:33.081Z,4.68
